sensor_id;sensor_type;location;lat;lon;timestamp;temperature;humidity
39525;DHT22;25203;50.754;6.978;2023-07-31T00:00:05;17.60;99.90
39525;DHT22;25203;50.754;6.978;2023-07-31T00:02:06;17.60;99.90
39525;DHT22;25203;50.754;6.978;2023-07-31T00:04:07;17.50;99.90
39525;DHT22;25203;50.754;6.978;2023-07-31T00:06:07;17.60;99.90
39525;DHT22;25203;50.754;6.978;2023-07-31T00:08:08;17.50;99.90
39525;DHT22;25203;50.754;6.978;2023-07-31T00:10:09;17.60;99.90
39525;DHT22;25203;50.754;6.978;2023-07-31T00:12:09;17.60;99.90
39525;DHT22;25203;50.754;6.978;2023-07-31T00:14:10;17.60;99.90
39525;DHT22;25203;50.754;6.978;2023-07-31T00:16:11;17.70;99.90
39525;DHT22;25203;50.754;6.978;2023-07-31T00:18:11;17.70;99.90
39525;DHT22;25203;50.754;6.978;2023-07-31T00:20:12;17.70;99.90
39525;DHT22;25203;50.754;6.978;2023-07-31T00:22:12;17.70;99.90
39525;DHT22;25203;50.754;6.978;2023-07-31T00:24:13;17.70;99.90
39525;DHT22;25203;50.754;6.978;2023-07-31T00:26:13;17.70;99.90
39525;DHT22;25203;50.754;6.978;2023-07-31T00:28:14;17.70;99.90
39525;DHT22;25203;50.754;6.978;2023-07-31T00:30:15;17.70;99.90
39525;DHT22;25203;50.754;6.978;2023-07-31T00:32:16;17.70;99.90
39525;DHT22;25203;50.754;6.978;2023-07-31T00:34:17;17.70;99.90
39525;DHT22;25203;50.754;6.978;2023-07-31T00:36:17;17.70;99.90
39525;DHT22;25203;50.754;6.978;2023-07-31T00:38:18;17.70;99.90
39525;DHT22;25203;50.754;6.978;2023-07-31T00:40:19;17.70;99.90
39525;DHT22;25203;50.754;6.978;2023-07-31T00:42:19;17.70;99.90
39525;DHT22;25203;50.754;6.978;2023-07-31T00:44:20;17.70;99.90
39525;DHT22;25203;50.754;6.978;2023-07-31T00:46:21;17.70;99.90
39525;DHT22;25203;50.754;6.978;2023-07-31T00:48:21;17.80;99.90
39525;DHT22;25203;50.754;6.978;2023-07-31T00:50:24;17.80;99.90
39525;DHT22;25203;50.754;6.978;2023-07-31T00:52:25;17.80;99.90
39525;DHT22;25203;50.754;6.978;2023-07-31T00:54:26;17.80;99.90
39525;DHT22;25203;50.754;6.978;2023-07-31T00:56:27;17.90;99.90
39525;DHT22;25203;50.754;6.978;2023-07-31T00:58:29;17.80;99.90
39525;DHT22;25203;50.754;6.978;2023-07-31T01:00:29;17.90;99.90
39525;DHT22;25203;50.754;6.978;2023-07-31T01:02:30;17.90;99.90
39525;DHT22;25203;50.754;6.978;2023-07-31T01:04:30;17.80;99.90
39525;DHT22;25203;50.754;6.978;2023-07-31T01:06:48;17.80;99.90
39525;DHT22;25203;50.754;6.978;2023-07-31T01:09:00;17.80;99.90
39525;DHT22;25203;50.754;6.978;2023-07-31T01:11:11;17.80;99.90
39525;DHT22;25203;50.754;6.978;2023-07-31T01:13:15;17.70;99.90
39525;DHT22;25203;50.754;6.978;2023-07-31T01:15:16;17.60;99.90
39525;DHT22;25203;50.754;6.978;2023-07-31T01:17:17;17.60;99.90
39525;DHT22;25203;50.754;6.978;2023-07-31T01:19:22;17.50;99.90
39525;DHT22;25203;50.754;6.978;2023-07-31T01:23:48;17.40;99.90
39525;DHT22;25203;50.754;6.978;2023-07-31T01:26:21;17.30;99.90
39525;DHT22;25203;50.754;6.978;2023-07-31T01:28:33;17.00;99.90
39525;DHT22;25203;50.754;6.978;2023-07-31T01:30:43;16.70;99.90
39525;DHT22;25203;50.754;6.978;2023-07-31T01:32:47;16.60;99.90
39525;DHT22;25203;50.754;6.978;2023-07-31T01:34:48;16.40;99.90
39525;DHT22;25203;50.754;6.978;2023-07-31T01:36:49;16.40;99.90
39525;DHT22;25203;50.754;6.978;2023-07-31T01:38:50;16.20;99.90
39525;DHT22;25203;50.754;6.978;2023-07-31T01:40:51;16.30;99.90
39525;DHT22;25203;50.754;6.978;2023-07-31T01:42:53;16.20;99.90
39525;DHT22;25203;50.754;6.978;2023-07-31T01:44:53;16.20;99.90
39525;DHT22;25203;50.754;6.978;2023-07-31T01:46:54;16.20;99.90
39525;DHT22;25203;50.754;6.978;2023-07-31T01:48:54;16.20;99.90
39525;DHT22;25203;50.754;6.978;2023-07-31T01:50:55;16.30;99.90
39525;DHT22;25203;50.754;6.978;2023-07-31T01:52:56;16.20;99.90
39525;DHT22;25203;50.754;6.978;2023-07-31T01:54:56;16.20;99.90
39525;DHT22;25203;50.754;6.978;2023-07-31T01:56:57;16.30;99.90
39525;DHT22;25203;50.754;6.978;2023-07-31T01:58:57;16.30;99.90
39525;DHT22;25203;50.754;6.978;2023-07-31T02:00:58;16.30;99.90
39525;DHT22;25203;50.754;6.978;2023-07-31T02:02:59;16.40;99.90
39525;DHT22;25203;50.754;6.978;2023-07-31T02:05:00;16.40;99.90
39525;DHT22;25203;50.754;6.978;2023-07-31T02:07:00;16.40;99.90
39525;DHT22;25203;50.754;6.978;2023-07-31T02:09:01;16.40;99.90
39525;DHT22;25203;50.754;6.978;2023-07-31T02:11:02;16.40;99.90
39525;DHT22;25203;50.754;6.978;2023-07-31T02:13:03;16.40;99.90
39525;DHT22;25203;50.754;6.978;2023-07-31T02:15:04;16.50;99.90
39525;DHT22;25203;50.754;6.978;2023-07-31T02:17:05;16.50;99.90
39525;DHT22;25203;50.754;6.978;2023-07-31T02:19:06;16.50;99.90
39525;DHT22;25203;50.754;6.978;2023-07-31T02:21:06;16.50;99.90
39525;DHT22;25203;50.754;6.978;2023-07-31T02:23:07;16.60;99.90
39525;DHT22;25203;50.754;6.978;2023-07-31T02:25:08;16.60;99.90
39525;DHT22;25203;50.754;6.978;2023-07-31T02:27:08;16.60;99.90
39525;DHT22;25203;50.754;6.978;2023-07-31T02:29:09;16.60;99.90
39525;DHT22;25203;50.754;6.978;2023-07-31T02:31:10;16.60;99.90
39525;DHT22;25203;50.754;6.978;2023-07-31T02:33:10;16.60;99.90
39525;DHT22;25203;50.754;6.978;2023-07-31T02:35:11;16.70;99.90
39525;DHT22;25203;50.754;6.978;2023-07-31T02:37:15;16.70;99.90
39525;DHT22;25203;50.754;6.978;2023-07-31T02:39:16;16.70;99.90
39525;DHT22;25203;50.754;6.978;2023-07-31T02:41:16;16.80;99.90
39525;DHT22;25203;50.754;6.978;2023-07-31T02:43:17;16.80;99.90
39525;DHT22;25203;50.754;6.978;2023-07-31T02:45:17;16.90;99.90
39525;DHT22;25203;50.754;6.978;2023-07-31T02:47:18;16.90;99.90
39525;DHT22;25203;50.754;6.978;2023-07-31T02:49:19;16.90;99.90
39525;DHT22;25203;50.754;6.978;2023-07-31T02:51:19;16.90;99.90
39525;DHT22;25203;50.754;6.978;2023-07-31T02:53:21;16.80;99.90
39525;DHT22;25203;50.754;6.978;2023-07-31T02:55:23;16.90;99.90
39525;DHT22;25203;50.754;6.978;2023-07-31T02:57:24;16.90;99.90
39525;DHT22;25203;50.754;6.978;2023-07-31T02:59:24;16.90;99.90
39525;DHT22;25203;50.754;6.978;2023-07-31T03:01:25;16.90;99.90
39525;DHT22;25203;50.754;6.978;2023-07-31T03:03:26;17.00;99.90
39525;DHT22;25203;50.754;6.978;2023-07-31T03:05:26;17.00;99.90
39525;DHT22;25203;50.754;6.978;2023-07-31T03:07:27;17.00;99.90
39525;DHT22;25203;50.754;6.978;2023-07-31T03:09:28;17.00;99.90
39525;DHT22;25203;50.754;6.978;2023-07-31T03:11:29;17.00;99.90
39525;DHT22;25203;50.754;6.978;2023-07-31T03:13:30;17.10;99.90
39525;DHT22;25203;50.754;6.978;2023-07-31T03:15:30;17.10;99.90
39525;DHT22;25203;50.754;6.978;2023-07-31T03:17:31;17.10;99.90
39525;DHT22;25203;50.754;6.978;2023-07-31T03:19:32;17.20;99.90
39525;DHT22;25203;50.754;6.978;2023-07-31T03:21:32;17.20;99.90
39525;DHT22;25203;50.754;6.978;2023-07-31T03:23:33;17.20;99.90
39525;DHT22;25203;50.754;6.978;2023-07-31T03:25:34;17.20;99.90
39525;DHT22;25203;50.754;6.978;2023-07-31T03:27:34;17.20;99.90
39525;DHT22;25203;50.754;6.978;2023-07-31T03:29:35;17.20;99.90
39525;DHT22;25203;50.754;6.978;2023-07-31T03:31:35;17.20;99.90
39525;DHT22;25203;50.754;6.978;2023-07-31T03:33:36;17.30;99.90
39525;DHT22;25203;50.754;6.978;2023-07-31T03:35:36;17.30;99.90
39525;DHT22;25203;50.754;6.978;2023-07-31T03:37:37;17.30;99.90
39525;DHT22;25203;50.754;6.978;2023-07-31T03:39:38;17.30;99.90
39525;DHT22;25203;50.754;6.978;2023-07-31T03:41:38;17.30;99.90
39525;DHT22;25203;50.754;6.978;2023-07-31T03:43:39;17.30;99.90
39525;DHT22;25203;50.754;6.978;2023-07-31T03:45:40;17.40;99.90
39525;DHT22;25203;50.754;6.978;2023-07-31T03:47:40;17.40;99.90
39525;DHT22;25203;50.754;6.978;2023-07-31T03:49:41;17.40;99.90
39525;DHT22;25203;50.754;6.978;2023-07-31T03:51:41;17.40;99.90
39525;DHT22;25203;50.754;6.978;2023-07-31T03:53:42;17.40;99.90
39525;DHT22;25203;50.754;6.978;2023-07-31T03:55:43;17.40;99.90
39525;DHT22;25203;50.754;6.978;2023-07-31T03:57:44;17.40;99.90
39525;DHT22;25203;50.754;6.978;2023-07-31T03:59:44;17.40;99.90
39525;DHT22;25203;50.754;6.978;2023-07-31T04:01:45;17.40;99.90
39525;DHT22;25203;50.754;6.978;2023-07-31T04:03:45;17.40;99.90
39525;DHT22;25203;50.754;6.978;2023-07-31T04:05:46;17.40;99.90
39525;DHT22;25203;50.754;6.978;2023-07-31T04:07:46;17.40;99.90
39525;DHT22;25203;50.754;6.978;2023-07-31T04:09:47;17.40;99.90
39525;DHT22;25203;50.754;6.978;2023-07-31T04:11:48;17.40;99.90
39525;DHT22;25203;50.754;6.978;2023-07-31T04:13:48;17.40;99.90
39525;DHT22;25203;50.754;6.978;2023-07-31T04:15:49;17.40;99.90
39525;DHT22;25203;50.754;6.978;2023-07-31T04:17:54;17.40;99.90
39525;DHT22;25203;50.754;6.978;2023-07-31T04:19:55;17.40;99.90
39525;DHT22;25203;50.754;6.978;2023-07-31T04:21:55;17.40;99.90
39525;DHT22;25203;50.754;6.978;2023-07-31T04:23:56;17.40;99.90
39525;DHT22;25203;50.754;6.978;2023-07-31T04:25:56;17.40;99.90
39525;DHT22;25203;50.754;6.978;2023-07-31T04:27:57;17.40;99.90
39525;DHT22;25203;50.754;6.978;2023-07-31T04:29:57;17.40;99.90
39525;DHT22;25203;50.754;6.978;2023-07-31T04:31:58;17.40;99.90
39525;DHT22;25203;50.754;6.978;2023-07-31T04:33:59;17.40;99.90
39525;DHT22;25203;50.754;6.978;2023-07-31T04:35:59;17.40;99.90
39525;DHT22;25203;50.754;6.978;2023-07-31T04:38:00;17.40;99.90
39525;DHT22;25203;50.754;6.978;2023-07-31T04:40:00;17.40;99.90
39525;DHT22;25203;50.754;6.978;2023-07-31T04:42:01;17.50;99.90
39525;DHT22;25203;50.754;6.978;2023-07-31T04:44:02;17.50;99.90
39525;DHT22;25203;50.754;6.978;2023-07-31T04:46:04;17.50;99.90
39525;DHT22;25203;50.754;6.978;2023-07-31T04:48:04;17.50;99.90
39525;DHT22;25203;50.754;6.978;2023-07-31T04:50:05;17.60;99.90
39525;DHT22;25203;50.754;6.978;2023-07-31T04:52:06;17.60;99.90
39525;DHT22;25203;50.754;6.978;2023-07-31T04:54:07;17.70;99.90
39525;DHT22;25203;50.754;6.978;2023-07-31T04:56:07;17.70;99.90
39525;DHT22;25203;50.754;6.978;2023-07-31T04:58:08;17.80;99.90
39525;DHT22;25203;50.754;6.978;2023-07-31T05:00:09;17.80;99.90
39525;DHT22;25203;50.754;6.978;2023-07-31T05:02:12;17.90;99.90
39525;DHT22;25203;50.754;6.978;2023-07-31T05:04:13;18.00;99.90
39525;DHT22;25203;50.754;6.978;2023-07-31T05:06:14;18.10;99.90
39525;DHT22;25203;50.754;6.978;2023-07-31T05:08:16;18.10;99.90
39525;DHT22;25203;50.754;6.978;2023-07-31T05:10:18;18.20;99.90
39525;DHT22;25203;50.754;6.978;2023-07-31T05:12:18;18.20;99.90
39525;DHT22;25203;50.754;6.978;2023-07-31T05:14:19;18.20;99.90
39525;DHT22;25203;50.754;6.978;2023-07-31T05:16:20;18.20;99.90
39525;DHT22;25203;50.754;6.978;2023-07-31T05:18:21;18.30;99.90
39525;DHT22;25203;50.754;6.978;2023-07-31T05:20:21;18.30;99.90
39525;DHT22;25203;50.754;6.978;2023-07-31T05:22:22;18.30;99.90
39525;DHT22;25203;50.754;6.978;2023-07-31T05:24:23;18.40;99.90
39525;DHT22;25203;50.754;6.978;2023-07-31T05:26:23;18.40;99.90
39525;DHT22;25203;50.754;6.978;2023-07-31T05:28:24;18.50;99.90
39525;DHT22;25203;50.754;6.978;2023-07-31T05:30:24;18.50;99.90
39525;DHT22;25203;50.754;6.978;2023-07-31T05:32:25;18.60;99.90
39525;DHT22;25203;50.754;6.978;2023-07-31T05:34:26;18.60;99.90
39525;DHT22;25203;50.754;6.978;2023-07-31T05:36:26;18.60;99.90
39525;DHT22;25203;50.754;6.978;2023-07-31T05:38:27;18.60;99.90
39525;DHT22;25203;50.754;6.978;2023-07-31T05:40:27;18.60;99.90
39525;DHT22;25203;50.754;6.978;2023-07-31T05:42:28;18.60;99.90
39525;DHT22;25203;50.754;6.978;2023-07-31T05:44:29;18.60;99.90
39525;DHT22;25203;50.754;6.978;2023-07-31T05:46:29;18.60;99.90
39525;DHT22;25203;50.754;6.978;2023-07-31T05:48:31;18.60;99.90
39525;DHT22;25203;50.754;6.978;2023-07-31T05:50:32;18.60;99.90
39525;DHT22;25203;50.754;6.978;2023-07-31T05:52:32;18.60;99.90
39525;DHT22;25203;50.754;6.978;2023-07-31T05:54:33;18.60;99.90
39525;DHT22;25203;50.754;6.978;2023-07-31T05:56:34;18.60;99.90
39525;DHT22;25203;50.754;6.978;2023-07-31T05:58:34;18.60;99.90
39525;DHT22;25203;50.754;6.978;2023-07-31T06:00:35;18.50;99.90
39525;DHT22;25203;50.754;6.978;2023-07-31T06:02:35;18.50;99.90
39525;DHT22;25203;50.754;6.978;2023-07-31T06:04:37;18.50;99.90
39525;DHT22;25203;50.754;6.978;2023-07-31T06:06:38;18.40;99.90
39525;DHT22;25203;50.754;6.978;2023-07-31T06:08:38;18.20;99.90
39525;DHT22;25203;50.754;6.978;2023-07-31T06:10:40;18.10;99.90
39525;DHT22;25203;50.754;6.978;2023-07-31T06:12:41;18.00;99.90
39525;DHT22;25203;50.754;6.978;2023-07-31T06:14:41;17.90;99.90
39525;DHT22;25203;50.754;6.978;2023-07-31T06:16:43;17.80;99.90
39525;DHT22;25203;50.754;6.978;2023-07-31T06:18:44;17.60;99.90
39525;DHT22;25203;50.754;6.978;2023-07-31T06:20:45;17.50;99.90
39525;DHT22;25203;50.754;6.978;2023-07-31T06:22:45;17.40;99.90
39525;DHT22;25203;50.754;6.978;2023-07-31T06:24:46;17.20;99.90
39525;DHT22;25203;50.754;6.978;2023-07-31T06:26:47;17.10;99.90
39525;DHT22;25203;50.754;6.978;2023-07-31T06:28:47;17.00;99.90
39525;DHT22;25203;50.754;6.978;2023-07-31T06:30:48;16.90;99.90
39525;DHT22;25203;50.754;6.978;2023-07-31T06:32:49;16.80;99.90
39525;DHT22;25203;50.754;6.978;2023-07-31T06:34:49;16.80;99.90
39525;DHT22;25203;50.754;6.978;2023-07-31T06:36:50;16.80;99.90
39525;DHT22;25203;50.754;6.978;2023-07-31T06:38:51;16.80;99.90
39525;DHT22;25203;50.754;6.978;2023-07-31T06:40:51;16.80;99.90
39525;DHT22;25203;50.754;6.978;2023-07-31T06:42:53;16.90;99.90
39525;DHT22;25203;50.754;6.978;2023-07-31T06:44:54;16.90;99.90
39525;DHT22;25203;50.754;6.978;2023-07-31T06:46:54;17.00;99.90
39525;DHT22;25203;50.754;6.978;2023-07-31T06:48:55;17.00;99.90
39525;DHT22;25203;50.754;6.978;2023-07-31T06:50:55;17.10;99.90
39525;DHT22;25203;50.754;6.978;2023-07-31T06:52:56;17.20;99.90
39525;DHT22;25203;50.754;6.978;2023-07-31T06:55:16;17.30;99.90
39525;DHT22;25203;50.754;6.978;2023-07-31T06:57:19;17.50;99.90
39525;DHT22;25203;50.754;6.978;2023-07-31T06:59:20;17.60;99.90
39525;DHT22;25203;50.754;6.978;2023-07-31T07:01:20;17.70;99.90
39525;DHT22;25203;50.754;6.978;2023-07-31T07:03:21;17.80;99.90
39525;DHT22;25203;50.754;6.978;2023-07-31T07:05:21;18.00;99.90
39525;DHT22;25203;50.754;6.978;2023-07-31T07:07:22;18.20;99.90
39525;DHT22;25203;50.754;6.978;2023-07-31T07:09:23;18.40;99.90
39525;DHT22;25203;50.754;6.978;2023-07-31T07:11:23;18.70;99.90
39525;DHT22;25203;50.754;6.978;2023-07-31T07:13:24;18.90;99.90
39525;DHT22;25203;50.754;6.978;2023-07-31T07:15:24;19.00;99.90
39525;DHT22;25203;50.754;6.978;2023-07-31T07:17:27;19.10;99.90
39525;DHT22;25203;50.754;6.978;2023-07-31T07:19:27;19.10;99.90
39525;DHT22;25203;50.754;6.978;2023-07-31T07:21:28;19.00;99.90
39525;DHT22;25203;50.754;6.978;2023-07-31T07:23:28;18.90;99.90
39525;DHT22;25203;50.754;6.978;2023-07-31T07:25:29;18.90;99.90
39525;DHT22;25203;50.754;6.978;2023-07-31T07:27:30;18.80;99.90
39525;DHT22;25203;50.754;6.978;2023-07-31T07:29:30;18.70;99.90
39525;DHT22;25203;50.754;6.978;2023-07-31T07:31:31;18.70;99.90
39525;DHT22;25203;50.754;6.978;2023-07-31T07:33:32;18.60;99.90
39525;DHT22;25203;50.754;6.978;2023-07-31T07:35:36;18.50;99.90
39525;DHT22;25203;50.754;6.978;2023-07-31T07:37:36;18.40;99.90
39525;DHT22;25203;50.754;6.978;2023-07-31T07:39:37;18.20;99.90
39525;DHT22;25203;50.754;6.978;2023-07-31T07:41:37;18.10;99.90
39525;DHT22;25203;50.754;6.978;2023-07-31T07:43:38;17.90;99.90
39525;DHT22;25203;50.754;6.978;2023-07-31T07:45:39;17.80;99.90
39525;DHT22;25203;50.754;6.978;2023-07-31T07:47:41;17.70;99.90
39525;DHT22;25203;50.754;6.978;2023-07-31T07:49:41;17.60;99.90
39525;DHT22;25203;50.754;6.978;2023-07-31T07:51:42;17.60;99.90
39525;DHT22;25203;50.754;6.978;2023-07-31T07:53:43;17.60;99.90
39525;DHT22;25203;50.754;6.978;2023-07-31T07:55:43;17.50;99.90
39525;DHT22;25203;50.754;6.978;2023-07-31T07:57:44;17.40;99.90
39525;DHT22;25203;50.754;6.978;2023-07-31T07:59:45;17.30;99.90
39525;DHT22;25203;50.754;6.978;2023-07-31T08:01:45;17.30;99.90
39525;DHT22;25203;50.754;6.978;2023-07-31T08:03:47;17.20;99.90
39525;DHT22;25203;50.754;6.978;2023-07-31T08:05:48;17.20;99.90
39525;DHT22;25203;50.754;6.978;2023-07-31T08:07:48;17.20;99.90
39525;DHT22;25203;50.754;6.978;2023-07-31T08:09:49;17.20;99.90
39525;DHT22;25203;50.754;6.978;2023-07-31T08:11:50;17.20;99.90
39525;DHT22;25203;50.754;6.978;2023-07-31T08:13:50;17.20;99.90
39525;DHT22;25203;50.754;6.978;2023-07-31T08:15:51;17.30;99.90
39525;DHT22;25203;50.754;6.978;2023-07-31T08:17:51;17.40;99.90
39525;DHT22;25203;50.754;6.978;2023-07-31T08:19:52;17.40;99.90
39525;DHT22;25203;50.754;6.978;2023-07-31T08:21:53;17.40;99.90
39525;DHT22;25203;50.754;6.978;2023-07-31T08:23:53;17.40;99.90
39525;DHT22;25203;50.754;6.978;2023-07-31T08:25:54;17.30;99.90
39525;DHT22;25203;50.754;6.978;2023-07-31T08:27:54;17.30;99.90
39525;DHT22;25203;50.754;6.978;2023-07-31T08:29:55;17.30;99.90
39525;DHT22;25203;50.754;6.978;2023-07-31T08:31:56;17.30;99.90
39525;DHT22;25203;50.754;6.978;2023-07-31T08:33:57;17.30;99.90
39525;DHT22;25203;50.754;6.978;2023-07-31T08:35:57;17.30;99.90
39525;DHT22;25203;50.754;6.978;2023-07-31T08:37:59;17.30;99.90
39525;DHT22;25203;50.754;6.978;2023-07-31T08:40:00;17.30;99.90
39525;DHT22;25203;50.754;6.978;2023-07-31T08:42:00;17.40;99.90
39525;DHT22;25203;50.754;6.978;2023-07-31T08:44:01;17.50;99.90
39525;DHT22;25203;50.754;6.978;2023-07-31T08:46:02;17.60;99.90
39525;DHT22;25203;50.754;6.978;2023-07-31T08:48:03;17.70;99.90
39525;DHT22;25203;50.754;6.978;2023-07-31T08:50:05;17.80;99.90
39525;DHT22;25203;50.754;6.978;2023-07-31T08:52:06;17.80;99.90
39525;DHT22;25203;50.754;6.978;2023-07-31T08:54:07;17.90;99.90
39525;DHT22;25203;50.754;6.978;2023-07-31T08:56:08;17.90;99.90
39525;DHT22;25203;50.754;6.978;2023-07-31T08:58:09;17.90;99.90
39525;DHT22;25203;50.754;6.978;2023-07-31T09:00:14;18.00;99.90
39525;DHT22;25203;50.754;6.978;2023-07-31T09:02:15;18.00;99.90
39525;DHT22;25203;50.754;6.978;2023-07-31T09:04:19;18.10;99.90
39525;DHT22;25203;50.754;6.978;2023-07-31T09:06:23;18.00;99.90
39525;DHT22;25203;50.754;6.978;2023-07-31T09:08:26;18.00;99.90
39525;DHT22;25203;50.754;6.978;2023-07-31T09:10:29;18.10;99.90
39525;DHT22;25203;50.754;6.978;2023-07-31T09:12:30;18.10;99.90
39525;DHT22;25203;50.754;6.978;2023-07-31T09:14:31;18.20;99.90
39525;DHT22;25203;50.754;6.978;2023-07-31T09:16:33;18.30;99.90
39525;DHT22;25203;50.754;6.978;2023-07-31T09:18:53;18.40;99.90
39525;DHT22;25203;50.754;6.978;2023-07-31T09:21:04;18.50;99.90
39525;DHT22;25203;50.754;6.978;2023-07-31T09:23:10;18.40;99.90
39525;DHT22;25203;50.754;6.978;2023-07-31T09:25:21;18.40;99.90
39525;DHT22;25203;50.754;6.978;2023-07-31T09:27:21;18.20;99.90
39525;DHT22;25203;50.754;6.978;2023-07-31T09:29:23;18.20;99.90
39525;DHT22;25203;50.754;6.978;2023-07-31T09:31:38;18.10;99.90
39525;DHT22;25203;50.754;6.978;2023-07-31T09:33:54;18.10;99.90
39525;DHT22;25203;50.754;6.978;2023-07-31T09:35:58;18.20;99.90
39525;DHT22;25203;50.754;6.978;2023-07-31T09:40:07;18.30;99.90
39525;DHT22;25203;50.754;6.978;2023-07-31T09:42:08;18.40;99.90
39525;DHT22;25203;50.754;6.978;2023-07-31T09:44:08;18.40;99.90
39525;DHT22;25203;50.754;6.978;2023-07-31T09:46:13;18.50;99.90
39525;DHT22;25203;50.754;6.978;2023-07-31T09:48:18;18.50;99.90
39525;DHT22;25203;50.754;6.978;2023-07-31T09:50:21;18.60;99.90
39525;DHT22;25203;50.754;6.978;2023-07-31T09:52:22;18.80;99.90
39525;DHT22;25203;50.754;6.978;2023-07-31T09:54:22;18.90;99.90
39525;DHT22;25203;50.754;6.978;2023-07-31T09:56:24;19.10;99.90
39525;DHT22;25203;50.754;6.978;2023-07-31T09:58:28;19.40;99.90
39525;DHT22;25203;50.754;6.978;2023-07-31T10:00:30;19.70;99.90
39525;DHT22;25203;50.754;6.978;2023-07-31T10:02:32;20.10;99.90
39525;DHT22;25203;50.754;6.978;2023-07-31T10:04:33;20.50;99.90
39525;DHT22;25203;50.754;6.978;2023-07-31T10:06:35;20.90;99.90
39525;DHT22;25203;50.754;6.978;2023-07-31T10:08:36;21.10;99.90
39525;DHT22;25203;50.754;6.978;2023-07-31T10:10:37;21.30;99.90
39525;DHT22;25203;50.754;6.978;2023-07-31T10:12:41;21.10;99.90
39525;DHT22;25203;50.754;6.978;2023-07-31T10:14:43;20.90;99.90
39525;DHT22;25203;50.754;6.978;2023-07-31T10:16:45;20.80;99.90
39525;DHT22;25203;50.754;6.978;2023-07-31T10:18:46;20.80;99.90
39525;DHT22;25203;50.754;6.978;2023-07-31T10:20:47;20.80;99.90
39525;DHT22;25203;50.754;6.978;2023-07-31T10:22:49;21.00;99.90
39525;DHT22;25203;50.754;6.978;2023-07-31T10:24:50;21.30;99.90
39525;DHT22;25203;50.754;6.978;2023-07-31T10:26:53;21.30;99.90
39525;DHT22;25203;50.754;6.978;2023-07-31T10:28:58;21.30;99.90
39525;DHT22;25203;50.754;6.978;2023-07-31T10:31:01;21.40;99.90
39525;DHT22;25203;50.754;6.978;2023-07-31T10:33:03;21.50;99.90
39525;DHT22;25203;50.754;6.978;2023-07-31T10:35:04;21.50;99.90
39525;DHT22;25203;50.754;6.978;2023-07-31T10:37:39;21.30;99.90
39525;DHT22;25203;50.754;6.978;2023-07-31T10:39:40;21.30;99.90
39525;DHT22;25203;50.754;6.978;2023-07-31T10:41:40;21.30;99.90
39525;DHT22;25203;50.754;6.978;2023-07-31T10:43:41;21.40;99.90
39525;DHT22;25203;50.754;6.978;2023-07-31T10:45:42;21.50;99.90
39525;DHT22;25203;50.754;6.978;2023-07-31T10:47:44;21.40;99.90
39525;DHT22;25203;50.754;6.978;2023-07-31T10:49:46;21.30;99.90
39525;DHT22;25203;50.754;6.978;2023-07-31T10:51:47;21.20;99.90
39525;DHT22;25203;50.754;6.978;2023-07-31T10:53:48;21.00;99.90
39525;DHT22;25203;50.754;6.978;2023-07-31T10:55:49;20.90;99.90
39525;DHT22;25203;50.754;6.978;2023-07-31T10:57:52;20.70;99.90
39525;DHT22;25203;50.754;6.978;2023-07-31T11:00:26;20.80;99.90
39525;DHT22;25203;50.754;6.978;2023-07-31T11:02:27;20.70;99.90
39525;DHT22;25203;50.754;6.978;2023-07-31T11:04:30;20.70;99.90
39525;DHT22;25203;50.754;6.978;2023-07-31T11:06:36;20.70;99.90
39525;DHT22;25203;50.754;6.978;2023-07-31T11:08:45;20.70;99.90
39525;DHT22;25203;50.754;6.978;2023-07-31T11:10:47;20.70;99.90
39525;DHT22;25203;50.754;6.978;2023-07-31T11:12:47;20.80;99.90
39525;DHT22;25203;50.754;6.978;2023-07-31T11:14:56;20.70;99.90
39525;DHT22;25203;50.754;6.978;2023-07-31T11:16:57;20.60;99.90
39525;DHT22;25203;50.754;6.978;2023-07-31T11:18:57;20.60;99.90
39525;DHT22;25203;50.754;6.978;2023-07-31T11:20:58;20.50;99.90
39525;DHT22;25203;50.754;6.978;2023-07-31T11:23:03;20.60;99.90
39525;DHT22;25203;50.754;6.978;2023-07-31T11:25:04;20.60;99.90
39525;DHT22;25203;50.754;6.978;2023-07-31T11:27:07;20.50;99.90
39525;DHT22;25203;50.754;6.978;2023-07-31T11:29:11;20.50;99.90
39525;DHT22;25203;50.754;6.978;2023-07-31T11:31:12;20.10;99.90
39525;DHT22;25203;50.754;6.978;2023-07-31T11:33:13;19.80;99.90
39525;DHT22;25203;50.754;6.978;2023-07-31T11:35:14;19.60;99.90
39525;DHT22;25203;50.754;6.978;2023-07-31T11:37:14;19.50;99.90
39525;DHT22;25203;50.754;6.978;2023-07-31T11:39:15;19.60;99.90
39525;DHT22;25203;50.754;6.978;2023-07-31T11:41:16;19.80;99.90
39525;DHT22;25203;50.754;6.978;2023-07-31T11:43:18;20.00;99.90
39525;DHT22;25203;50.754;6.978;2023-07-31T11:45:19;20.50;99.90
39525;DHT22;25203;50.754;6.978;2023-07-31T11:47:19;21.00;99.90
39525;DHT22;25203;50.754;6.978;2023-07-31T11:49:21;21.40;99.90
39525;DHT22;25203;50.754;6.978;2023-07-31T11:51:21;21.60;99.90
39525;DHT22;25203;50.754;6.978;2023-07-31T11:53:43;21.80;99.90
39525;DHT22;25203;50.754;6.978;2023-07-31T11:55:45;22.10;99.90
39525;DHT22;25203;50.754;6.978;2023-07-31T11:57:47;22.50;99.90
39525;DHT22;25203;50.754;6.978;2023-07-31T11:59:48;22.60;99.90
39525;DHT22;25203;50.754;6.978;2023-07-31T12:01:49;22.40;99.90
39525;DHT22;25203;50.754;6.978;2023-07-31T12:03:54;22.50;99.90
39525;DHT22;25203;50.754;6.978;2023-07-31T12:05:54;22.60;99.90
39525;DHT22;25203;50.754;6.978;2023-07-31T12:07:55;22.90;99.90
39525;DHT22;25203;50.754;6.978;2023-07-31T12:09:56;23.30;99.90
39525;DHT22;25203;50.754;6.978;2023-07-31T12:11:56;23.30;99.90
39525;DHT22;25203;50.754;6.978;2023-07-31T12:13:57;23.30;99.90
39525;DHT22;25203;50.754;6.978;2023-07-31T12:16:00;23.70;99.90
39525;DHT22;25203;50.754;6.978;2023-07-31T12:18:10;23.60;99.90
39525;DHT22;25203;50.754;6.978;2023-07-31T12:20:11;23.30;99.90
39525;DHT22;25203;50.754;6.978;2023-07-31T12:22:13;23.10;99.90
39525;DHT22;25203;50.754;6.978;2023-07-31T12:24:14;22.80;99.90
39525;DHT22;25203;50.754;6.978;2023-07-31T12:26:16;22.70;99.90
39525;DHT22;25203;50.754;6.978;2023-07-31T12:28:22;22.50;99.90
39525;DHT22;25203;50.754;6.978;2023-07-31T12:30:33;22.20;99.90
39525;DHT22;25203;50.754;6.978;2023-07-31T12:32:34;21.90;99.90
39525;DHT22;25203;50.754;6.978;2023-07-31T12:34:42;21.70;99.90
39525;DHT22;25203;50.754;6.978;2023-07-31T12:36:43;21.50;99.90
39525;DHT22;25203;50.754;6.978;2023-07-31T12:38:44;21.40;99.90
39525;DHT22;25203;50.754;6.978;2023-07-31T12:40:45;21.30;99.90
39525;DHT22;25203;50.754;6.978;2023-07-31T12:42:47;21.20;99.90
39525;DHT22;25203;50.754;6.978;2023-07-31T12:44:47;21.10;99.90
39525;DHT22;25203;50.754;6.978;2023-07-31T12:46:48;21.10;99.90
39525;DHT22;25203;50.754;6.978;2023-07-31T12:48:49;21.10;99.90
39525;DHT22;25203;50.754;6.978;2023-07-31T12:50:50;21.10;99.90
39525;DHT22;25203;50.754;6.978;2023-07-31T12:52:53;21.20;99.90